Zprávy METAR z letišť v České republice


LKPR - Praha Ruzyně, Česká republika
Aktualizováno: 26.09.2020 16:30
 
Teplota vzduchu: 7°C
Chlad větru: 3°C
Vítr: WSW 24 km/h
Rosný bod: 6°C
Vlhkost vzduchu: 93%
Tlak vzduchu: 996 hPa
Stav počasí: Light Rain
Oblačnost: Overcast
Viditelnost: 10 km
Detaily oblačnosti: Few Clouds 366 m
Overcast 1158 m
2020/09/26 14:30 LKPR 261430Z 24013KT 9999 -RA FEW012 OVC038 07/06 Q0996 NOSIG
LKTB - Brno Tuřany, Česká republika
Aktualizováno: 26.09.2020 16:30
 
Teplota vzduchu: 11°C
Vítr: WSW 17 km/h
Rosný bod: 6°C
Vlhkost vzduchu: 72%
Tlak vzduchu: 997 hPa
Oblačnost: Mostly Cloudy
Viditelnost: 10 km
Detaily oblačnosti: Mostly Cloudy 1036 m
2020/09/26 14:30 LKTB 261430Z 25009KT 9999 BKN034 11/06 Q0997 NOSIG
 
LKKV - Karlovy Vary, Česká republika
Aktualizováno: 26.09.2020 16:30
 
Teplota vzduchu: 5°C
Chlad větru: 2°C
Vítr: WSW 11 km/h
Rosný bod: 5°C
Vlhkost vzduchu: 100%
Tlak vzduchu: 996 hPa
Stav počasí: Light rain, Patches of, Fog
Oblačnost: Overcast
Viditelnost: 10 km
Detaily oblačnosti: Partly Cloudy 152 m
Mostly Cloudy 366 m
Overcast 853 m
2020/09/26 14:30 LKKV 261430Z 25006KT 200V280 9999 3000N -RA BCFG SCT005 BKN012 OVC028 05/05 Q0996
LKMT - Ostrava Mošnov, Česká republika
Aktualizováno: 26.09.2020 16:30
 
Teplota vzduchu: 10°C
Chlad větru: 7°C
Vítr: SSW 22 km/h
Rosný bod: 7°C
Vlhkost vzduchu: 82%
Tlak vzduchu: 997 hPa
Oblačnost: Mostly Cloudy
Viditelnost: 10 km
Detaily oblačnosti: Mostly Cloudy 610 m
2020/09/26 14:30 LKMT 261430Z 21012KT 9999 BKN020 10/07 Q0997 NOSIG
 
LKPD - Pardubice, Česká republika
Aktualizováno: 26.09.2020 16:30
 
Teplota vzduchu: 9°C
Chlad větru: 6°C
Vítr: WSW 22 km/h
Rosný bod: 7°C
Vlhkost vzduchu: 87%
Tlak vzduchu: 996 hPa
Oblačnost: Overcast
Viditelnost: 10 km
Detaily oblačnosti: Partly Cloudy 427 m
Mostly Cloudy 914 m
Overcast 1433 m
2020/09/26 14:30 LKPD 261430Z 25012KT 9999 SCT014 BKN030 OVC047 09/07 Q0996 NOSIG RMK BLU BLU
LKKB - Praha Kbely, Česká republika
Aktualizováno: 26.09.2020 16:30
 
Teplota vzduchu: 8°C
Chlad větru: 4°C
Vítr: SW 22 km/h
Rosný bod: 6°C
Vlhkost vzduchu: 87%
Tlak vzduchu: 996 hPa
Stav počasí: Light Rain
Oblačnost: Overcast
Viditelnost: 10 km
Detaily oblačnosti: Partly Cloudy 1006 m
Overcast 1341 m
2020/09/26 14:30 LKKB 261430Z 23012KT 9999 -RA SCT033 OVC044 08/06 Q0996 NOSIG
 
LKCV - Čáslav, Česká republika
Aktualizováno: 26.09.2020 16:30
 
Teplota vzduchu: 8°C
Chlad větru: 4°C
Vítr: W 22 km/h
Rosný bod: 6°C
Vlhkost vzduchu: 87%
Tlak vzduchu: 996 hPa
Stav počasí: Light Rain
Oblačnost: Overcast
Viditelnost: 10 km
Detaily oblačnosti: Partly Cloudy 518 m
Overcast 1006 m
2020/09/26 14:30 LKCV 261430Z 26012KT 9999 -RA SCT017 OVC033 08/06 Q0996 NOSIG RMK BLU BLU
LKNA - Náměšť n. Osl., Česká republika
Aktualizováno: 26.09.2020 16:30
 
Teplota vzduchu: 9°C
Chlad větru: 6°C
Vítr: W 20 km/h
Rosný bod: 5°C
Vlhkost vzduchu: 76%
Tlak vzduchu: 997 hPa
Oblačnost: Overcast
Viditelnost: 10 km
Detaily oblačnosti: Mostly Cloudy 610 m
Overcast 792 m
2020/09/26 14:30 LKNA 261430Z 27011KT 9999 BKN020 OVC026 09/05 Q0997 NOSIG RMK WHT WHT
 
LKLN - Plzeň Líně, Česká republika
Aktualizováno: 26.09.2020 16:30
 
Teplota vzduchu: 7°C
Chlad větru: 6°C
Vítr: SW 9 km/h
Rosný bod: 7°C
Vlhkost vzduchu: 100%
Tlak vzduchu: 997 hPa
Stav počasí: Light Rain
Oblačnost: Overcast
Viditelnost: 10 km
Detaily oblačnosti: Mostly Cloudy 640 m
Overcast 762 m
2020/09/26 14:30 LKLN 261430Z AUTO 23005KT 9999 -RA BKN021 OVC025 07/07 Q0997
LKVO - Vodochody, Česká republika
Aktualizováno: 25.09.2020 15:00
Není aktuální
 
Teplota vzduchu: 16°C
Vítr: WNW 30 km/h
Rosný bod: 13°C
Vlhkost vzduchu: 83%
Tlak vzduchu: 997 hPa
Stav počasí: Light Rain
Oblačnost: Mostly Cloudy
Viditelnost: 10 km
Detaily oblačnosti: Mostly Cloudy 366 m
Mostly Cloudy 2103 m
2020/09/25 13:00 LKVO 251300Z 29016KT 9999 -RA BKN012 BKN069 16/13 Q0997

Metar display script od Saratoga-Weather.org
upravil a přeložil Miloš Jiřík